createdAt,value
2022-09-22T00:01:31.453Z,102480.94
2022-09-22T00:04:03.346Z,102480.59
2022-09-22T00:06:38.724Z,102481.09
2022-09-22T00:09:09.773Z,102482.06
2022-09-22T00:11:42.370Z,102475.38
2022-09-22T00:14:13.005Z,102480.69
2022-09-22T00:16:44.921Z,102473.56
2022-09-22T00:19:15.935Z,102478.50
2022-09-22T00:21:45.527Z,102479.00
2022-09-22T00:24:13.192Z,102480.66
2022-09-22T00:26:40.635Z,102479.81
2022-09-22T00:29:09.759Z,102483.81
2022-09-22T00:31:38.955Z,102472.91
2022-09-22T00:34:07.827Z,102476.59
2022-09-22T00:36:35.196Z,102485.47
2022-09-22T00:39:04.045Z,102485.69
2022-09-22T00:41:36.282Z,102482.22
2022-09-22T00:44:38.509Z,102484.75
2022-09-22T00:47:31.547Z,102476.81
2022-09-22T00:50:10.152Z,102478.81
2022-09-22T00:52:43.403Z,102481.16
2022-09-22T00:55:18.760Z,102476.19
2022-09-22T00:57:47.572Z,102470.88
2022-09-22T01:00:15.918Z,102474.19
2022-09-22T01:02:48.410Z,102469.19
2022-09-22T01:05:16.430Z,102472.22
2022-09-22T01:07:44.437Z,102471.03
2022-09-22T01:10:13.231Z,102467.72
2022-09-22T01:12:59.279Z,102466.53
2022-09-22T01:15:38.021Z,102460.56
2022-09-22T01:18:20.831Z,102465.22
2022-09-22T01:21:20.376Z,102463.22
2022-09-22T01:24:28.951Z,102466.00
2022-09-22T01:27:49.645Z,102464.25
2022-09-22T01:30:24.901Z,102458.06
2022-09-22T01:33:22.828Z,102461.28
2022-09-22T01:36:06.799Z,102448.00
2022-09-22T01:38:42.802Z,102453.31
2022-09-22T01:41:19.223Z,102444.53
2022-09-22T01:43:54.364Z,102441.88
2022-09-22T01:46:31.094Z,102444.38
2022-09-22T01:49:07.593Z,102439.75
2022-09-22T01:51:43.013Z,102442.06
2022-09-22T01:54:18.161Z,102445.38
2022-09-22T01:56:54.794Z,102437.75
2022-09-22T01:59:28.433Z,102435.44
2022-09-22T02:02:03.556Z,102437.44
2022-09-22T02:04:38.599Z,102433.09
2022-09-22T02:07:11.268Z,102437.56
2022-09-22T02:09:42.254Z,102430.78
2022-09-22T02:12:09.715Z,102425.31
2022-09-22T02:14:37.072Z,102418.16
2022-09-22T02:17:05.820Z,102421.13
2022-09-22T02:19:37.786Z,102425.13
2022-09-22T02:22:07.009Z,102423.47
2022-09-22T02:24:38.110Z,102420.63
2022-09-22T02:27:10.685Z,102415.31
2022-09-22T02:29:42.767Z,102417.78
2022-09-22T02:32:16.205Z,102419.47
2022-09-22T02:34:45.751Z,102417.13
2022-09-22T02:37:26.010Z,102419.78
2022-09-22T02:40:07.221Z,102414.47
2022-09-22T02:42:42.868Z,102415.31
2022-09-22T02:45:17.210Z,102414.81
2022-09-22T02:47:52.485Z,102410.84
2022-09-22T02:50:25.420Z,102407.84
2022-09-22T02:52:58.902Z,102410.50
2022-09-22T02:55:26.156Z,102410.53
2022-09-22T02:57:54.431Z,102409.38
2022-09-22T03:00:22.709Z,102412.22
2022-09-22T03:02:51.324Z,102411.19
2022-09-22T03:05:18.755Z,102398.75
2022-09-22T03:07:45.993Z,102398.44
2022-09-22T03:10:13.305Z,102400.56
2022-09-22T03:13:09.120Z,102401.88
2022-09-22T03:15:31.444Z,102402.88
2022-09-22T03:18:00.208Z,102400.53
2022-09-22T03:20:27.533Z,102398.22
2022-09-22T03:22:54.790Z,102399.84
2022-09-22T03:25:22.054Z,102389.22
2022-09-22T03:27:49.390Z,102394.91
2022-09-22T03:30:16.833Z,102385.94
2022-09-22T03:32:44.333Z,102392.94
2022-09-22T03:35:13.095Z,102387.63
2022-09-22T03:37:40.385Z,102384.78
2022-09-22T03:40:08.368Z,102389.13
2022-09-22T03:42:35.987Z,102391.41
2022-09-22T03:45:04.395Z,102388.44
2022-09-22T03:47:32.318Z,102387.44
2022-09-22T03:49:59.548Z,102389.25
2022-09-22T03:52:28.150Z,102386.59
2022-09-22T03:54:55.587Z,102386.59
2022-09-22T03:57:22.975Z,102384.94
2022-09-22T03:59:50.515Z,102382.28
2022-09-22T04:02:18.452Z,102382.13
2022-09-22T04:04:45.979Z,102377.97
2022-09-22T04:07:13.198Z,102376.16
2022-09-22T04:09:42.031Z,102374.84
2022-09-22T04:12:09.805Z,102370.72
2022-09-22T04:14:37.162Z,102373.69
2022-09-22T04:17:05.239Z,102370.38
2022-09-22T04:19:35.589Z,102369.38
2022-09-22T04:22:03.252Z,102363.41
2022-09-22T04:24:30.777Z,102359.44
2022-09-22T04:27:19.122Z,102363.44
2022-09-22T04:29:46.645Z,102353.78
2022-09-22T04:32:14.522Z,102360.25
2022-09-22T04:34:42.882Z,102360.75
2022-09-22T04:37:10.526Z,102357.09
2022-09-22T04:39:38.106Z,102353.78
2022-09-22T04:42:09.061Z,102364.75
2022-09-22T04:44:36.462Z,102354.78
2022-09-22T04:47:04.393Z,102361.59
2022-09-22T04:49:31.619Z,102358.75
2022-09-22T04:51:59.182Z,102357.97
2022-09-22T04:54:26.475Z,102357.47
2022-09-22T04:56:55.642Z,102354.09
2022-09-22T04:59:24.345Z,102352.59
2022-09-22T05:01:51.573Z,102361.06
2022-09-22T05:04:18.880Z,102362.06
2022-09-22T05:06:46.997Z,102354.44
2022-09-22T05:09:14.666Z,102358.41
2022-09-22T05:11:41.903Z,102355.78
2022-09-22T05:14:09.175Z,102357.88
2022-09-22T05:16:37.881Z,102361.16
2022-09-22T05:19:05.226Z,102358.66
2022-09-22T05:21:32.529Z,102360.78
2022-09-22T05:24:00.846Z,102360.06
2022-09-22T05:26:28.328Z,102357.72
2022-09-22T05:28:56.101Z,102364.75
2022-09-22T05:31:23.814Z,102368.03
2022-09-22T05:33:52.787Z,102366.84
2022-09-22T05:36:20.376Z,102363.38
2022-09-22T05:38:47.752Z,102371.31
2022-09-22T05:41:15.060Z,102367.69
2022-09-22T05:43:42.370Z,102375.16
2022-09-22T05:46:09.764Z,102372.03
2022-09-22T05:48:37.076Z,102364.66
2022-09-22T05:51:05.718Z,102368.03
2022-09-22T05:53:33.017Z,102369.53
2022-09-22T05:56:00.765Z,102374.81
2022-09-22T05:58:28.105Z,102375.66
2022-09-22T06:00:58.097Z,102376.16
2022-09-22T06:03:25.863Z,102378.13
2022-09-22T06:05:56.271Z,102373.97
2022-09-22T06:08:24.956Z,102378.78
2022-09-22T06:10:52.772Z,102377.72
2022-09-22T06:13:20.095Z,102380.63
2022-09-22T06:15:50.221Z,102377.31
2022-09-22T06:18:23.480Z,102382.44
2022-09-22T06:20:52.520Z,102381.38
2022-09-22T06:23:19.849Z,102385.13
2022-09-22T06:25:48.570Z,102381.69
2022-09-22T06:28:16.517Z,102383.53
2022-09-22T06:30:43.836Z,102387.88
2022-09-22T06:33:11.818Z,102386.94
2022-09-22T06:35:42.923Z,102379.78
2022-09-22T06:38:15.087Z,102376.16
2022-09-22T06:40:43.473Z,102380.31
2022-09-22T06:43:20.413Z,102381.31
2022-09-22T06:45:47.733Z,102382.03
2022-09-22T06:48:15.160Z,102377.03
2022-09-22T06:50:48.553Z,102385.56
2022-09-22T06:53:16.189Z,102382.28
2022-09-22T06:55:43.973Z,102382.91
2022-09-22T06:58:13.917Z,102373.31
2022-09-22T07:00:43.548Z,102371.50
2022-09-22T07:03:20.962Z,102364.38
2022-09-22T07:05:56.539Z,102369.16
2022-09-22T07:08:25.382Z,102363.38
2022-09-22T07:10:55.039Z,102366.59
2022-09-22T07:13:24.131Z,102363.91
2022-09-22T07:15:51.719Z,102370.09
2022-09-22T07:18:18.976Z,102364.38
2022-09-22T07:20:46.250Z,102363.19
2022-09-22T07:23:18.283Z,102357.78
2022-09-22T07:25:56.337Z,102366.19
2022-09-22T07:28:28.359Z,102366.88
2022-09-22T07:30:59.018Z,102363.22
2022-09-22T07:33:26.935Z,102365.38
2022-09-22T07:36:02.948Z,102367.97
2022-09-22T07:38:33.625Z,102357.38
2022-09-22T07:41:01.434Z,102354.91
2022-09-22T07:43:30.524Z,102354.31
2022-09-22T07:45:58.175Z,102353.22
2022-09-22T07:48:36.390Z,102357.28
2022-09-22T07:51:05.702Z,102359.84
2022-09-22T07:53:33.553Z,102355.09
2022-09-22T07:56:06.302Z,102355.03
2022-09-22T07:58:35.048Z,102357.19
2022-09-22T08:01:07.997Z,102360.78
2022-09-22T08:03:43.776Z,102357.44
2022-09-22T08:06:12.720Z,102354.91
2022-09-22T08:08:42.584Z,102356.31
2022-09-22T08:11:13.286Z,102365.03
2022-09-22T08:13:44.238Z,102359.88
2022-09-22T08:16:12.118Z,102366.88
2022-09-22T08:18:42.127Z,102358.88
2022-09-22T08:21:09.511Z,102364.56
2022-09-22T08:23:39.934Z,102351.81
2022-09-22T08:26:11.749Z,102354.88
2022-09-22T08:28:39.019Z,102359.34
2022-09-22T08:31:13.211Z,102351.81
2022-09-22T08:33:40.940Z,102358.56
2022-09-22T08:36:09.425Z,102357.16
2022-09-22T08:38:37.931Z,102355.41
2022-09-22T08:41:21.538Z,102354.72
2022-09-22T08:43:55.315Z,102360.53
2022-09-22T08:46:31.662Z,102358.03
2022-09-22T08:49:27.411Z,102353.47
2022-09-22T08:52:05.411Z,102359.97
2022-09-22T08:54:33.223Z,102364.41
2022-09-22T08:57:32.724Z,102368.28
2022-09-22T09:00:06.389Z,102360.72
2022-09-22T09:02:51.811Z,102361.31
2022-09-22T09:06:07.422Z,102359.69
2022-09-22T09:09:23.394Z,102357.69
2022-09-22T09:12:11.290Z,102361.41
2022-09-22T09:15:09.662Z,102353.41
2022-09-22T09:17:45.973Z,102358.94
2022-09-22T09:20:18.624Z,102350.81
2022-09-22T09:22:55.675Z,102348.75
2022-09-22T09:25:36.813Z,102350.78
2022-09-22T09:28:13.396Z,102351.34
2022-09-22T09:30:47.470Z,102354.22
2022-09-22T09:33:30.014Z,102345.06
2022-09-22T09:35:58.676Z,102335.94
2022-09-22T09:38:35.453Z,102338.69
2022-09-22T09:41:14.643Z,102338.47
2022-09-22T09:43:45.581Z,102333.50
2022-09-22T09:46:29.849Z,102337.63
2022-09-22T09:49:14.436Z,102322.88
2022-09-22T09:51:46.639Z,102325.00
2022-09-22T09:54:18.071Z,102321.91
2022-09-22T09:57:10.806Z,102318.16
2022-09-22T09:59:59.374Z,102319.16
2022-09-22T10:02:31.730Z,102314.56
2022-09-22T10:05:04.568Z,102313.31
2022-09-22T10:07:44.132Z,102309.63
2022-09-22T10:10:33.978Z,102309.00
2022-09-22T10:13:26.369Z,102307.63
2022-09-22T10:16:30.743Z,102305.22
2022-09-22T10:19:22.818Z,102305.50
2022-09-22T10:21:51.749Z,102301.03
2022-09-22T10:24:31.871Z,102300.09
2022-09-22T10:27:02.430Z,102294.53
2022-09-22T10:29:32.832Z,102293.22
2022-09-22T10:32:05.460Z,102294.13
2022-09-22T10:34:36.653Z,102285.69
2022-09-22T10:37:10.535Z,102284.66
2022-09-22T10:39:46.042Z,102290.72
2022-09-22T10:42:33.475Z,102286.97
2022-09-22T10:45:12.854Z,102286.97
2022-09-22T10:47:56.564Z,102278.44
2022-09-22T10:50:59.254Z,102281.97
2022-09-22T10:54:08.827Z,102277.34
2022-09-22T10:56:42.824Z,102272.22
2022-09-22T10:59:44.926Z,102284.75
2022-09-22T11:02:59.940Z,102284.84
2022-09-22T11:06:06.354Z,102283.28
2022-09-22T11:09:16.215Z,102278.47
2022-09-22T11:12:14.975Z,102283.28
2022-09-22T11:15:13.804Z,102277.53
2022-09-22T11:18:24.985Z,102274.31
2022-09-22T11:21:06.210Z,102277.25
2022-09-22T11:24:08.410Z,102269.19
2022-09-22T11:26:48.999Z,102276.88
2022-09-22T11:30:02.389Z,102272.56
2022-09-22T11:32:57.852Z,102274.53
2022-09-22T11:35:56.953Z,102275.19
2022-09-22T11:39:07.562Z,102271.97
2022-09-22T11:41:43.766Z,102265.06
2022-09-22T11:44:43.377Z,102260.03
2022-09-22T11:47:37.565Z,102258.16
2022-09-22T11:50:39.630Z,102249.59
2022-09-22T11:53:28.969Z,102239.38
2022-09-22T11:56:29.082Z,102238.31
2022-09-22T11:59:05.188Z,102235.63
2022-09-22T12:01:39.050Z,102233.03
2022-09-22T12:04:21.325Z,102229.06
2022-09-22T12:06:56.000Z,102228.47
2022-09-22T12:09:36.891Z,102235.03
2022-09-22T12:12:18.346Z,102233.16
2022-09-22T12:14:56.657Z,102226.69
2022-09-22T12:17:36.135Z,102227.84
2022-09-22T12:20:22.104Z,102224.25
2022-09-22T12:23:18.001Z,102215.22
2022-09-22T12:25:56.834Z,102207.84
2022-09-22T12:28:28.713Z,102203.28
2022-09-22T12:31:05.554Z,102206.22
2022-09-22T12:33:37.386Z,102202.78
2022-09-22T12:36:06.931Z,102202.09
2022-09-22T12:38:35.041Z,102190.00
2022-09-22T12:41:04.370Z,102192.44
2022-09-22T12:43:38.059Z,102191.66
2022-09-22T12:46:24.077Z,102195.44
2022-09-22T12:48:52.209Z,102185.56
2022-09-22T12:51:33.765Z,102186.97
2022-09-22T12:54:47.196Z,102183.66
2022-09-22T12:57:28.829Z,102179.56
2022-09-22T13:00:23.931Z,102184.13
2022-09-22T13:02:52.895Z,102174.09
2022-09-22T13:05:35.938Z,102173.88
2022-09-22T13:08:04.200Z,102174.66
2022-09-22T13:11:00.521Z,102170.75
2022-09-22T13:13:44.697Z,102172.13
2022-09-22T13:16:34.909Z,102168.13
2022-09-22T13:19:04.275Z,102167.59
2022-09-22T13:21:36.902Z,102171.28
2022-09-22T13:24:18.638Z,102162.50
2022-09-22T13:26:46.023Z,102162.97
2022-09-22T13:29:16.327Z,102156.72
2022-09-22T13:31:47.713Z,102154.44
2022-09-22T13:34:27.839Z,102139.53
2022-09-22T13:37:00.526Z,102141.53
2022-09-22T13:39:33.106Z,102144.31
2022-09-22T13:42:08.404Z,102136.81
2022-09-22T13:44:42.461Z,102143.00
2022-09-22T13:47:19.528Z,102138.88
2022-09-22T13:49:51.780Z,102141.31
2022-09-22T13:52:24.789Z,102138.91
2022-09-22T13:54:57.478Z,102134.91
2022-09-22T13:57:30.350Z,102134.75
2022-09-22T14:00:05.089Z,102123.41
2022-09-22T14:02:34.587Z,102123.09
2022-09-22T14:05:07.991Z,102126.59
2022-09-22T14:07:49.464Z,102122.09
2022-09-22T14:10:27.891Z,102125.63
2022-09-22T14:12:55.959Z,102128.03
2022-09-22T14:15:49.902Z,102119.84
2022-09-22T14:18:28.107Z,102114.97
2022-09-22T14:20:59.647Z,102118.09
2022-09-22T14:23:53.828Z,102110.84
2022-09-22T14:26:33.621Z,102116.31
2022-09-22T14:29:15.303Z,102110.34
2022-09-22T14:31:54.135Z,102107.16
2022-09-22T14:34:34.471Z,102108.91
2022-09-22T14:37:20.656Z,102098.22
2022-09-22T14:40:03.442Z,102096.44
2022-09-22T14:42:34.161Z,102098.22
2022-09-22T14:45:21.161Z,102102.66
2022-09-22T14:48:15.826Z,102086.66
2022-09-22T14:53:49.501Z,102094.88
2022-09-22T14:56:30.099Z,102083.41
2022-09-22T14:59:25.638Z,102087.16
2022-09-22T15:02:13.692Z,102076.97
2022-09-22T15:04:48.669Z,102075.81
2022-09-22T15:07:26.692Z,102077.53
2022-09-22T15:09:59.476Z,102074.59
2022-09-22T15:12:40.434Z,102069.47
2022-09-22T15:15:21.594Z,102068.56
2022-09-22T15:18:09.059Z,102067.47
2022-09-22T15:20:42.813Z,102065.94
2022-09-22T15:23:23.080Z,102067.84
2022-09-22T15:25:52.161Z,102061.75
2022-09-22T15:28:23.764Z,102068.06
2022-09-22T15:30:52.737Z,102071.47
2022-09-22T15:33:21.560Z,102076.38
2022-09-22T15:35:55.295Z,102070.53
2022-09-22T15:38:27.848Z,102060.94
2022-09-22T15:40:55.509Z,102057.88
2022-09-22T15:43:24.390Z,102055.28
2022-09-22T15:45:58.249Z,102046.75
2022-09-22T15:48:31.116Z,102047.22
2022-09-22T15:51:04.731Z,102051.78
2022-09-22T15:53:34.578Z,102044.41
2022-09-22T15:56:07.045Z,102039.72
2022-09-22T15:58:39.097Z,102047.53
2022-09-22T16:01:07.919Z,102049.84
2022-09-22T16:03:41.282Z,102044.78
2022-09-22T16:06:14.090Z,102044.66
2022-09-22T16:08:48.152Z,102044.75
2022-09-22T16:11:18.734Z,102038.06
2022-09-22T16:13:46.159Z,102027.19
2022-09-22T16:16:13.588Z,102032.19
2022-09-22T16:18:41.907Z,102021.91
2022-09-22T16:21:29.365Z,102023.63
2022-09-22T16:24:11.201Z,102023.97
2022-09-22T16:26:40.209Z,102011.47
2022-09-22T16:29:08.567Z,102017.88
2022-09-22T16:31:37.400Z,102015.03
2022-09-22T16:34:06.711Z,102007.31
2022-09-22T16:36:36.421Z,102014.47
2022-09-22T16:39:05.726Z,102009.06
2022-09-22T16:41:35.340Z,102008.53
2022-09-22T16:44:04.537Z,102007.34
2022-09-22T16:46:35.049Z,101999.13
2022-09-22T16:49:05.271Z,102001.06
2022-09-22T16:51:35.497Z,102000.94
2022-09-22T16:54:07.433Z,102002.44
2022-09-22T16:56:37.858Z,102005.13
2022-09-22T16:59:06.330Z,102003.94
2022-09-22T17:01:37.697Z,102001.09
2022-09-22T17:04:07.265Z,102001.97
2022-09-22T17:06:38.205Z,102001.78
2022-09-22T17:09:09.290Z,101998.34
2022-09-22T17:11:40.178Z,101994.69
2022-09-22T17:14:12.504Z,101995.13
2022-09-22T17:16:44.937Z,102000.94
2022-09-22T17:19:18.477Z,101999.38
2022-09-22T17:21:47.725Z,101995.47
2022-09-22T17:24:16.913Z,102000.69
2022-09-22T17:26:47.842Z,102004.84
2022-09-22T17:29:17.034Z,101990.44
2022-09-22T17:31:48.188Z,102001.63
2022-09-22T17:34:15.810Z,102004.16
2022-09-22T17:36:43.476Z,102000.03
2022-09-22T17:39:11.743Z,101997.19
2022-09-22T17:41:47.002Z,101997.63
2022-09-22T17:44:18.194Z,101995.59
2022-09-22T17:47:04.271Z,101993.56
2022-09-22T17:49:50.167Z,101991.75
2022-09-22T17:52:29.930Z,101996.94
2022-09-22T17:55:07.446Z,101998.63
2022-09-22T17:57:38.616Z,101996.59
2022-09-22T18:00:09.854Z,101983.84
2022-09-22T18:02:37.339Z,101995.81
2022-09-22T18:05:06.778Z,101992.13
2022-09-22T18:07:40.147Z,101997.09
2022-09-22T18:10:10.925Z,101997.94
2022-09-22T18:12:41.283Z,101989.13
2022-09-22T18:15:13.170Z,101992.22
2022-09-22T18:17:42.844Z,101991.03
2022-09-22T18:20:12.626Z,101991.44
2022-09-22T18:22:41.422Z,101988.16
2022-09-22T18:25:11.353Z,101993.13
2022-09-22T18:27:40.407Z,101992.72
2022-09-22T18:30:12.190Z,101998.09
2022-09-22T18:32:42.748Z,102003.88
2022-09-22T18:35:12.763Z,101993.59
2022-09-22T18:37:40.498Z,101998.53
2022-09-22T18:40:10.134Z,101993.78
2022-09-22T18:42:38.903Z,101997.72
2022-09-22T18:45:07.799Z,102002.69
2022-09-22T18:47:39.630Z,101999.81
2022-09-22T18:50:08.253Z,102001.06
2022-09-22T18:52:36.743Z,102001.69
2022-09-22T18:55:05.244Z,102000.47
2022-09-22T18:57:32.529Z,101997.59
2022-09-22T19:00:01.643Z,102002.31
2022-09-22T19:02:30.238Z,102011.81
2022-09-22T19:04:57.621Z,102005.25
2022-09-22T19:07:43.605Z,102002.78
2022-09-22T19:10:14.721Z,102008.97
2022-09-22T19:12:42.709Z,101999.50
2022-09-22T19:15:18.145Z,102000.94
2022-09-22T19:17:48.437Z,102004.88
2022-09-22T19:20:20.390Z,101999.94
2022-09-22T19:22:49.268Z,102001.16
2022-09-22T19:25:17.372Z,101996.22
2022-09-22T19:27:44.747Z,101998.28
2022-09-22T19:30:14.385Z,102005.69
2022-09-22T19:32:41.901Z,102000.75
2022-09-22T19:35:09.854Z,101998.50
2022-09-22T19:37:38.107Z,102003.25
2022-09-22T19:40:08.515Z,101998.31
2022-09-22T19:42:40.064Z,101996.00
2022-09-22T19:45:08.513Z,102001.75
2022-09-22T19:47:37.740Z,101994.34
2022-09-22T19:50:07.952Z,101997.66
2022-09-22T19:52:35.980Z,101998.06
2022-09-22T19:55:03.916Z,101996.84
2022-09-22T19:57:32.014Z,101983.88
2022-09-22T19:59:59.351Z,101989.66
2022-09-22T20:02:26.681Z,101987.16
2022-09-22T20:04:55.959Z,101985.72
2022-09-22T20:07:27.722Z,101994.16
2022-09-22T20:09:57.668Z,101990.47
2022-09-22T20:12:24.944Z,101991.69
2022-09-22T20:14:53.306Z,101988.81
2022-09-22T20:17:20.598Z,101983.84
2022-09-22T20:19:47.859Z,101984.47
2022-09-22T20:22:25.234Z,101982.41
2022-09-22T20:24:57.168Z,101969.47
2022-09-22T20:27:27.119Z,101976.22
2022-09-22T20:29:57.428Z,101980.97
2022-09-22T20:32:27.126Z,101976.00
2022-09-22T20:34:55.765Z,101976.44
2022-09-22T20:37:25.003Z,101978.47
2022-09-22T20:39:52.974Z,101979.50
2022-09-22T20:42:20.878Z,101970.06
2022-09-22T20:44:49.163Z,101972.94
2022-09-22T20:47:18.956Z,101968.59
2022-09-22T20:49:51.619Z,101974.56
2022-09-22T20:52:21.071Z,101967.75
2022-09-22T20:54:50.093Z,101970.81
2022-09-22T20:57:17.896Z,101972.84
2022-09-22T20:59:45.786Z,101970.56
2022-09-22T21:02:15.249Z,101971.41
2022-09-22T21:04:42.899Z,101971.00
2022-09-22T21:07:11.655Z,101964.81
2022-09-22T21:09:58.246Z,101965.22
2022-09-22T21:12:31.280Z,101966.81
2022-09-22T21:14:59.503Z,101959.84
2022-09-22T21:17:32.925Z,101960.25
2022-09-22T21:20:00.607Z,101962.09
2022-09-22T21:22:28.299Z,101963.13
2022-09-22T21:24:56.434Z,101962.31
2022-09-22T21:27:25.017Z,101966.81
2022-09-22T21:29:53.971Z,101956.53
2022-09-22T21:32:21.481Z,101958.38
2022-09-22T21:34:49.030Z,101955.91
2022-09-22T21:37:16.622Z,101954.47
2022-09-22T21:39:44.155Z,101946.66
2022-09-22T21:42:11.675Z,101948.06
2022-09-22T21:44:39.191Z,101942.72
2022-09-22T21:47:08.142Z,101940.06
2022-09-22T21:49:35.486Z,101942.09
2022-09-22T21:52:03.297Z,101931.44
2022-09-22T21:54:31.102Z,101932.47
2022-09-22T21:56:58.438Z,101935.53
2022-09-22T21:59:25.746Z,101933.88
2022-09-22T22:01:53.081Z,101926.28
2022-09-22T22:04:21.818Z,101931.00
2022-09-22T22:06:49.146Z,101924.00
2022-09-22T22:09:19.069Z,101929.34
2022-09-22T22:11:49.593Z,101913.72
2022-09-22T22:14:22.318Z,101919.47
2022-09-22T22:16:52.182Z,101921.91
2022-09-22T22:19:23.098Z,101916.13
2022-09-22T22:21:51.657Z,101912.03
2022-09-22T22:24:30.452Z,101914.28
2022-09-22T22:27:01.403Z,101914.88
2022-09-22T22:29:34.725Z,101907.88
2022-09-22T22:32:05.023Z,101907.88
2022-09-22T22:34:33.738Z,101905.56
2022-09-22T22:37:01.168Z,101908.66
2022-09-22T22:39:29.892Z,101907.38
2022-09-22T22:41:57.276Z,101899.75
2022-09-22T22:44:24.646Z,101906.13
2022-09-22T22:46:51.923Z,101898.72
2022-09-22T22:49:19.669Z,101900.94
2022-09-22T22:51:49.409Z,101898.28
2022-09-22T22:54:16.901Z,101901.16
2022-09-22T22:56:46.814Z,101902.81
2022-09-22T22:59:18.139Z,101899.50
2022-09-22T23:01:45.542Z,101893.75
2022-09-22T23:04:13.107Z,101897.84
2022-09-22T23:06:44.508Z,101892.88
2022-09-22T23:09:16.779Z,101891.22
2022-09-22T23:11:45.807Z,101885.91
2022-09-22T23:14:15.897Z,101888.78
2022-09-22T23:16:46.741Z,101881.59
2022-09-22T23:19:17.300Z,101877.06
2022-09-22T23:21:45.395Z,101878.09
2022-09-22T23:24:16.923Z,101879.31
2022-09-22T23:26:45.024Z,101874.00
2022-09-22T23:29:12.585Z,101871.72
2022-09-22T23:31:39.820Z,101876.41
2022-09-22T23:34:07.066Z,101868.19
2022-09-22T23:36:34.561Z,101871.88
2022-09-22T23:39:04.368Z,101865.28
2022-09-22T23:41:35.724Z,101862.81
2022-09-22T23:44:03.882Z,101867.69
2022-09-22T23:46:31.786Z,101863.19
2022-09-22T23:49:00.108Z,101864.03
2022-09-22T23:51:28.355Z,101862.38
2022-09-22T23:53:56.320Z,101857.03
2022-09-22T23:56:24.703Z,101848.44
2022-09-22T23:58:53.554Z,101848.63
